sensor_id;sensor_type;location;lat;lon;timestamp;P1;durP1;ratioP1;P2;durP2;ratioP2
62123;SDS011;48110;47.532;19.078;2022-09-16T00:01:11;1.92;;;1.55;;
62123;SDS011;48110;47.532;19.078;2022-09-16T00:04:23;1.77;;;1.48;;
62123;SDS011;48110;47.532;19.078;2022-09-16T00:07:28;4.20;;;1.70;;
62123;SDS011;48110;47.532;19.078;2022-09-16T00:10:32;1.90;;;1.35;;
62123;SDS011;48110;47.532;19.078;2022-09-16T00:13:34;4.20;;;1.35;;
62123;SDS011;48110;47.532;19.078;2022-09-16T00:16:37;2.45;;;1.70;;
62123;SDS011;48110;47.532;19.078;2022-09-16T00:19:40;2.17;;;1.90;;
62123;SDS011;48110;47.532;19.078;2022-09-16T00:22:42;2.20;;;1.50;;
62123;SDS011;48110;47.532;19.078;2022-09-16T00:25:54;4.60;;;2.05;;
62123;SDS011;48110;47.532;19.078;2022-09-16T00:28:57;1.95;;;1.75;;
62123;SDS011;48110;47.532;19.078;2022-09-16T00:32:00;3.10;;;1.90;;
62123;SDS011;48110;47.532;19.078;2022-09-16T00:35:03;2.15;;;1.77;;
62123;SDS011;48110;47.532;19.078;2022-09-16T00:38:06;2.97;;;2.12;;
62123;SDS011;48110;47.532;19.078;2022-09-16T00:41:15;4.43;;;2.00;;
62123;SDS011;48110;47.532;19.078;2022-09-16T00:48:14;4.03;;;2.28;;
62123;SDS011;48110;47.532;19.078;2022-09-16T00:51:22;3.03;;;2.17;;
62123;SDS011;48110;47.532;19.078;2022-09-16T00:54:26;2.10;;;1.90;;
62123;SDS011;48110;47.532;19.078;2022-09-16T00:57:31;3.90;;;2.10;;
62123;SDS011;48110;47.532;19.078;2022-09-16T01:00:34;2.97;;;2.03;;
62123;SDS011;48110;47.532;19.078;2022-09-16T01:03:44;2.87;;;2.10;;
62123;SDS011;48110;47.532;19.078;2022-09-16T01:06:51;4.00;;;1.90;;
62123;SDS011;48110;47.532;19.078;2022-09-16T01:09:54;4.20;;;2.17;;
62123;SDS011;48110;47.532;19.078;2022-09-16T01:12:59;3.75;;;1.80;;
62123;SDS011;48110;47.532;19.078;2022-09-16T01:16:16;2.17;;;1.80;;
62123;SDS011;48110;47.532;19.078;2022-09-16T01:23:28;2.22;;;2.03;;
62123;SDS011;48110;47.532;19.078;2022-09-16T01:26:49;2.85;;;2.15;;
62123;SDS011;48110;47.532;19.078;2022-09-16T01:33:58;3.78;;;2.20;;
62123;SDS011;48110;47.532;19.078;2022-09-16T01:41:20;3.00;;;2.70;;
62123;SDS011;48110;47.532;19.078;2022-09-16T01:47:21;3.08;;;2.35;;
62123;SDS011;48110;47.532;19.078;2022-09-16T01:50:30;2.85;;;2.55;;
62123;SDS011;48110;47.532;19.078;2022-09-16T01:57:07;2.50;;;2.30;;
62123;SDS011;48110;47.532;19.078;2022-09-16T02:00:18;3.35;;;2.78;;
62123;SDS011;48110;47.532;19.078;2022-09-16T02:03:23;3.10;;;2.80;;
62123;SDS011;48110;47.532;19.078;2022-09-16T02:06:30;5.03;;;2.92;;
62123;SDS011;48110;47.532;19.078;2022-09-16T02:09:36;3.65;;;2.90;;
62123;SDS011;48110;47.532;19.078;2022-09-16T02:12:43;5.50;;;3.22;;
62123;SDS011;48110;47.532;19.078;2022-09-16T02:15:50;3.28;;;2.97;;
62123;SDS011;48110;47.532;19.078;2022-09-16T02:18:56;3.17;;;2.87;;
62123;SDS011;48110;47.532;19.078;2022-09-16T02:22:06;4.05;;;3.22;;
62123;SDS011;48110;47.532;19.078;2022-09-16T02:25:13;6.97;;;3.22;;
62123;SDS011;48110;47.532;19.078;2022-09-16T02:28:23;4.35;;;3.80;;
62123;SDS011;48110;47.532;19.078;2022-09-16T02:31:30;5.47;;;3.78;;
62123;SDS011;48110;47.532;19.078;2022-09-16T02:34:39;5.72;;;3.40;;
62123;SDS011;48110;47.532;19.078;2022-09-16T02:37:48;4.37;;;3.97;;
62123;SDS011;48110;47.532;19.078;2022-09-16T02:44:01;7.30;;;5.40;;
62123;SDS011;48110;47.532;19.078;2022-09-16T02:50:15;5.50;;;4.93;;
62123;SDS011;48110;47.532;19.078;2022-09-16T02:53:32;7.90;;;6.78;;
62123;SDS011;48110;47.532;19.078;2022-09-16T02:56:44;7.40;;;6.12;;
62123;SDS011;48110;47.532;19.078;2022-09-16T02:59:47;7.40;;;6.60;;
62123;SDS011;48110;47.532;19.078;2022-09-16T03:02:52;7.80;;;6.60;;
62123;SDS011;48110;47.532;19.078;2022-09-16T03:09:11;10.38;;;6.78;;
62123;SDS011;48110;47.532;19.078;2022-09-16T03:12:27;7.90;;;6.70;;
62123;SDS011;48110;47.532;19.078;2022-09-16T03:19:03;7.32;;;6.62;;
62123;SDS011;48110;47.532;19.078;2022-09-16T03:22:38;9.65;;;7.40;;
62123;SDS011;48110;47.532;19.078;2022-09-16T03:25:57;8.40;;;7.28;;
62123;SDS011;48110;47.532;19.078;2022-09-16T03:32:30;8.38;;;6.78;;
62123;SDS011;48110;47.532;19.078;2022-09-16T03:35:42;9.57;;;7.95;;
62123;SDS011;48110;47.532;19.078;2022-09-16T03:38:47;10.38;;;7.93;;
62123;SDS011;48110;47.532;19.078;2022-09-16T03:41:51;8.52;;;7.35;;
62123;SDS011;48110;47.532;19.078;2022-09-16T03:44:54;10.88;;;8.30;;
62123;SDS011;48110;47.532;19.078;2022-09-16T03:47:56;10.68;;;7.62;;
62123;SDS011;48110;47.532;19.078;2022-09-16T03:50:59;8.40;;;7.28;;
62123;SDS011;48110;47.532;19.078;2022-09-16T03:54:02;10.85;;;7.60;;
62123;SDS011;48110;47.532;19.078;2022-09-16T03:57:04;9.05;;;8.10;;
62123;SDS011;48110;47.532;19.078;2022-09-16T04:00:08;11.63;;;8.20;;
62123;SDS011;48110;47.532;19.078;2022-09-16T04:03:13;11.18;;;8.68;;
62123;SDS011;48110;47.532;19.078;2022-09-16T04:06:15;12.98;;;7.95;;
62123;SDS011;48110;47.532;19.078;2022-09-16T04:09:18;9.95;;;8.18;;
62123;SDS011;48110;47.532;19.078;2022-09-16T04:12:21;9.55;;;8.20;;
62123;SDS011;48110;47.532;19.078;2022-09-16T04:15:23;9.30;;;8.13;;
62123;SDS011;48110;47.532;19.078;2022-09-16T04:18:26;10.55;;;8.60;;
62123;SDS011;48110;47.532;19.078;2022-09-16T04:21:28;12.23;;;8.75;;
62123;SDS011;48110;47.532;19.078;2022-09-16T04:24:31;12.25;;;8.88;;
62123;SDS011;48110;47.532;19.078;2022-09-16T04:27:34;9.52;;;7.80;;
62123;SDS011;48110;47.532;19.078;2022-09-16T04:30:37;10.05;;;8.75;;
62123;SDS011;48110;47.532;19.078;2022-09-16T04:33:40;11.88;;;9.25;;
62123;SDS011;48110;47.532;19.078;2022-09-16T04:36:43;14.65;;;9.32;;
62123;SDS011;48110;47.532;19.078;2022-09-16T04:39:46;11.90;;;9.43;;
62123;SDS011;48110;47.532;19.078;2022-09-16T04:42:49;11.57;;;9.50;;
62123;SDS011;48110;47.532;19.078;2022-09-16T04:45:52;11.82;;;9.52;;
62123;SDS011;48110;47.532;19.078;2022-09-16T04:48:56;12.45;;;9.50;;
62123;SDS011;48110;47.532;19.078;2022-09-16T04:51:59;13.27;;;9.93;;
62123;SDS011;48110;47.532;19.078;2022-09-16T04:55:02;12.55;;;9.30;;
62123;SDS011;48110;47.532;19.078;2022-09-16T04:58:04;12.40;;;10.32;;
62123;SDS011;48110;47.532;19.078;2022-09-16T05:01:11;11.68;;;9.68;;
62123;SDS011;48110;47.532;19.078;2022-09-16T05:04:18;12.52;;;9.40;;
62123;SDS011;48110;47.532;19.078;2022-09-16T05:07:21;13.73;;;9.68;;
62123;SDS011;48110;47.532;19.078;2022-09-16T05:10:25;11.27;;;9.02;;
62123;SDS011;48110;47.532;19.078;2022-09-16T05:13:30;12.80;;;9.10;;
62123;SDS011;48110;47.532;19.078;2022-09-16T05:16:32;12.48;;;9.35;;
62123;SDS011;48110;47.532;19.078;2022-09-16T05:19:35;11.73;;;8.98;;
62123;SDS011;48110;47.532;19.078;2022-09-16T05:22:38;11.27;;;9.40;;
62123;SDS011;48110;47.532;19.078;2022-09-16T05:25:40;10.73;;;9.30;;
62123;SDS011;48110;47.532;19.078;2022-09-16T05:28:43;11.40;;;9.10;;
62123;SDS011;48110;47.532;19.078;2022-09-16T05:31:46;14.82;;;9.55;;
62123;SDS011;48110;47.532;19.078;2022-09-16T05:34:49;12.18;;;9.20;;
62123;SDS011;48110;47.532;19.078;2022-09-16T05:37:52;11.90;;;9.05;;
62123;SDS011;48110;47.532;19.078;2022-09-16T05:40:57;12.55;;;9.68;;
62123;SDS011;48110;47.532;19.078;2022-09-16T05:44:01;14.30;;;9.73;;
62123;SDS011;48110;47.532;19.078;2022-09-16T05:47:05;12.02;;;8.88;;
62123;SDS011;48110;47.532;19.078;2022-09-16T05:50:08;11.77;;;9.43;;
62123;SDS011;48110;47.532;19.078;2022-09-16T05:53:10;11.52;;;9.27;;
62123;SDS011;48110;47.532;19.078;2022-09-16T05:56:17;11.20;;;8.35;;
62123;SDS011;48110;47.532;19.078;2022-09-16T05:59:20;13.52;;;8.38;;
62123;SDS011;48110;47.532;19.078;2022-09-16T06:02:24;11.10;;;8.30;;
62123;SDS011;48110;47.532;19.078;2022-09-16T06:05:30;11.05;;;7.62;;
62123;SDS011;48110;47.532;19.078;2022-09-16T06:08:34;9.68;;;8.05;;
62123;SDS011;48110;47.532;19.078;2022-09-16T06:11:39;13.82;;;8.25;;
62123;SDS011;48110;47.532;19.078;2022-09-16T06:14:46;9.15;;;7.30;;
62123;SDS011;48110;47.532;19.078;2022-09-16T06:17:49;11.23;;;7.32;;
62123;SDS011;48110;47.532;19.078;2022-09-16T06:20:54;12.90;;;7.43;;
62123;SDS011;48110;47.532;19.078;2022-09-16T06:23:57;10.45;;;7.60;;
62123;SDS011;48110;47.532;19.078;2022-09-16T06:26:59;13.45;;;8.23;;
62123;SDS011;48110;47.532;19.078;2022-09-16T06:30:02;11.30;;;7.95;;
62123;SDS011;48110;47.532;19.078;2022-09-16T06:33:06;13.45;;;7.68;;
62123;SDS011;48110;47.532;19.078;2022-09-16T06:36:11;13.13;;;7.32;;
62123;SDS011;48110;47.532;19.078;2022-09-16T06:39:16;9.73;;;7.25;;
62123;SDS011;48110;47.532;19.078;2022-09-16T06:42:19;10.93;;;7.37;;
62123;SDS011;48110;47.532;19.078;2022-09-16T06:45:21;9.45;;;6.93;;
62123;SDS011;48110;47.532;19.078;2022-09-16T06:48:25;10.00;;;7.15;;
62123;SDS011;48110;47.532;19.078;2022-09-16T06:51:29;9.70;;;6.95;;
62123;SDS011;48110;47.532;19.078;2022-09-16T06:54:32;10.30;;;6.87;;
62123;SDS011;48110;47.532;19.078;2022-09-16T06:57:35;14.23;;;6.68;;
62123;SDS011;48110;47.532;19.078;2022-09-16T07:00:38;7.57;;;6.25;;
62123;SDS011;48110;47.532;19.078;2022-09-16T07:03:42;9.38;;;6.28;;
62123;SDS011;48110;47.532;19.078;2022-09-16T07:06:46;10.52;;;6.22;;
62123;SDS011;48110;47.532;19.078;2022-09-16T07:10:11;10.00;;;5.70;;
62123;SDS011;48110;47.532;19.078;2022-09-16T07:13:13;8.93;;;5.82;;
62123;SDS011;48110;47.532;19.078;2022-09-16T07:16:17;13.00;;;6.43;;
62123;SDS011;48110;47.532;19.078;2022-09-16T07:19:23;10.68;;;5.65;;
62123;SDS011;48110;47.532;19.078;2022-09-16T07:22:29;7.95;;;5.12;;
62123;SDS011;48110;47.532;19.078;2022-09-16T07:25:32;7.75;;;5.07;;
62123;SDS011;48110;47.532;19.078;2022-09-16T07:28:37;7.28;;;5.18;;
62123;SDS011;48110;47.532;19.078;2022-09-16T07:31:41;7.68;;;5.15;;
62123;SDS011;48110;47.532;19.078;2022-09-16T07:34:43;6.87;;;4.65;;
62123;SDS011;48110;47.532;19.078;2022-09-16T07:37:46;8.88;;;4.47;;
62123;SDS011;48110;47.532;19.078;2022-09-16T07:40:49;10.85;;;4.53;;
62123;SDS011;48110;47.532;19.078;2022-09-16T07:43:52;7.68;;;3.72;;
62123;SDS011;48110;47.532;19.078;2022-09-16T07:46:56;5.60;;;4.03;;
62123;SDS011;48110;47.532;19.078;2022-09-16T07:49:58;7.70;;;4.18;;
62123;SDS011;48110;47.532;19.078;2022-09-16T07:53:01;8.68;;;4.20;;
62123;SDS011;48110;47.532;19.078;2022-09-16T07:56:07;7.97;;;4.30;;
62123;SDS011;48110;47.532;19.078;2022-09-16T07:59:15;7.35;;;4.12;;
62123;SDS011;48110;47.532;19.078;2022-09-16T08:02:20;14.55;;;4.05;;
62123;SDS011;48110;47.532;19.078;2022-09-16T08:05:23;7.95;;;3.97;;
62123;SDS011;48110;47.532;19.078;2022-09-16T08:08:26;7.93;;;4.12;;
62123;SDS011;48110;47.532;19.078;2022-09-16T08:11:29;7.40;;;4.40;;
62123;SDS011;48110;47.532;19.078;2022-09-16T08:14:32;9.88;;;4.25;;
62123;SDS011;48110;47.532;19.078;2022-09-16T08:17:35;9.35;;;4.32;;
62123;SDS011;48110;47.532;19.078;2022-09-16T08:20:38;9.85;;;4.70;;
62123;SDS011;48110;47.532;19.078;2022-09-16T08:23:41;9.30;;;4.37;;
62123;SDS011;48110;47.532;19.078;2022-09-16T08:26:44;7.60;;;4.70;;
62123;SDS011;48110;47.532;19.078;2022-09-16T08:29:46;8.27;;;4.05;;
62123;SDS011;48110;47.532;19.078;2022-09-16T08:32:56;11.40;;;3.90;;
62123;SDS011;48110;47.532;19.078;2022-09-16T08:39:03;6.60;;;3.67;;
62123;SDS011;48110;47.532;19.078;2022-09-16T08:42:25;9.13;;;3.87;;
62123;SDS011;48110;47.532;19.078;2022-09-16T08:52:36;8.63;;;3.40;;
62123;SDS011;48110;47.532;19.078;2022-09-16T08:55:44;10.50;;;3.90;;
62123;SDS011;48110;47.532;19.078;2022-09-16T08:58:54;6.25;;;3.50;;
62123;SDS011;48110;47.532;19.078;2022-09-16T09:05:53;8.13;;;3.70;;
62123;SDS011;48110;47.532;19.078;2022-09-16T09:12:34;5.70;;;3.72;;
62123;SDS011;48110;47.532;19.078;2022-09-16T09:15:44;4.80;;;3.25;;
62123;SDS011;48110;47.532;19.078;2022-09-16T09:29:46;5.40;;;3.08;;
62123;SDS011;48110;47.532;19.078;2022-09-16T09:40:35;6.03;;;3.17;;
62123;SDS011;48110;47.532;19.078;2022-09-16T09:43:46;10.32;;;3.20;;
62123;SDS011;48110;47.532;19.078;2022-09-16T09:46:57;6.25;;;2.90;;
62123;SDS011;48110;47.532;19.078;2022-09-16T09:50:16;6.87;;;2.70;;
62123;SDS011;48110;47.532;19.078;2022-09-16T09:53:26;4.55;;;2.72;;
62123;SDS011;48110;47.532;19.078;2022-09-16T09:56:36;5.78;;;2.95;;
62123;SDS011;48110;47.532;19.078;2022-09-16T10:03:16;5.18;;;2.42;;
62123;SDS011;48110;47.532;19.078;2022-09-16T10:06:26;4.70;;;2.13;;
62123;SDS011;48110;47.532;19.078;2022-09-16T10:09:31;4.07;;;1.87;;
62123;SDS011;48110;47.532;19.078;2022-09-16T10:12:39;4.95;;;2.12;;
62123;SDS011;48110;47.532;19.078;2022-09-16T10:15:42;7.82;;;2.20;;
62123;SDS011;48110;47.532;19.078;2022-09-16T10:19:04;5.60;;;2.25;;
62123;SDS011;48110;47.532;19.078;2022-09-16T10:22:25;6.93;;;2.42;;
62123;SDS011;48110;47.532;19.078;2022-09-16T10:25:32;5.50;;;2.28;;
62123;SDS011;48110;47.532;19.078;2022-09-16T10:28:35;6.10;;;2.20;;
62123;SDS011;48110;47.532;19.078;2022-09-16T10:31:39;6.85;;;2.17;;
62123;SDS011;48110;47.532;19.078;2022-09-16T10:34:44;3.92;;;2.10;;
62123;SDS011;48110;47.532;19.078;2022-09-16T10:37:49;5.07;;;2.05;;
62123;SDS011;48110;47.532;19.078;2022-09-16T10:40:56;3.75;;;1.90;;
62123;SDS011;48110;47.532;19.078;2022-09-16T10:44:10;5.18;;;1.70;;
62123;SDS011;48110;47.532;19.078;2022-09-16T10:47:22;3.87;;;1.77;;
62123;SDS011;48110;47.532;19.078;2022-09-16T10:50:27;4.40;;;1.70;;
62123;SDS011;48110;47.532;19.078;2022-09-16T10:56:54;5.12;;;1.95;;
62123;SDS011;48110;47.532;19.078;2022-09-16T11:07:17;7.43;;;1.83;;
62123;SDS011;48110;47.532;19.078;2022-09-16T11:13:42;7.37;;;1.60;;
62123;SDS011;48110;47.532;19.078;2022-09-16T11:17:28;3.20;;;1.48;;
62123;SDS011;48110;47.532;19.078;2022-09-16T11:23:59;3.22;;;1.60;;
62123;SDS011;48110;47.532;19.078;2022-09-16T11:37:39;5.68;;;1.62;;
62123;SDS011;48110;47.532;19.078;2022-09-16T11:41:04;4.05;;;1.60;;
62123;SDS011;48110;47.532;19.078;2022-09-16T11:44:14;6.43;;;1.65;;
62123;SDS011;48110;47.532;19.078;2022-09-16T11:47:39;2.35;;;1.45;;
62123;SDS011;48110;47.532;19.078;2022-09-16T11:57:58;5.25;;;1.52;;
62123;SDS011;48110;47.532;19.078;2022-09-16T12:01:09;2.55;;;1.15;;
62123;SDS011;48110;47.532;19.078;2022-09-16T12:04:30;5.95;;;1.73;;
62123;SDS011;48110;47.532;19.078;2022-09-16T12:11:58;2.33;;;1.20;;
62123;SDS011;48110;47.532;19.078;2022-09-16T12:21:33;4.68;;;1.60;;
62123;SDS011;48110;47.532;19.078;2022-09-16T12:24:42;5.03;;;1.80;;
62123;SDS011;48110;47.532;19.078;2022-09-16T12:27:50;4.95;;;1.62;;
62123;SDS011;48110;47.532;19.078;2022-09-16T12:31:07;7.10;;;1.48;;
62123;SDS011;48110;47.532;19.078;2022-09-16T12:34:13;3.45;;;1.55;;
62123;SDS011;48110;47.532;19.078;2022-09-16T12:51:17;4.47;;;1.70;;
62123;SDS011;48110;47.532;19.078;2022-09-16T12:58:22;3.50;;;1.33;;
62123;SDS011;48110;47.532;19.078;2022-09-16T13:01:49;2.47;;;1.40;;
62123;SDS011;48110;47.532;19.078;2022-09-16T13:05:02;2.87;;;1.25;;
62123;SDS011;48110;47.532;19.078;2022-09-16T13:08:18;4.40;;;1.50;;
62123;SDS011;48110;47.532;19.078;2022-09-16T13:11:26;5.40;;;1.50;;
62123;SDS011;48110;47.532;19.078;2022-09-16T13:14:52;4.22;;;1.58;;
62123;SDS011;48110;47.532;19.078;2022-09-16T13:24:34;6.43;;;1.77;;
62123;SDS011;48110;47.532;19.078;2022-09-16T13:27:40;2.45;;;1.40;;
62123;SDS011;48110;47.532;19.078;2022-09-16T13:34:14;3.17;;;1.40;;
62123;SDS011;48110;47.532;19.078;2022-09-16T13:37:24;4.32;;;1.50;;
62123;SDS011;48110;47.532;19.078;2022-09-16T13:40:28;4.47;;;1.55;;
62123;SDS011;48110;47.532;19.078;2022-09-16T13:43:34;3.80;;;1.35;;
62123;SDS011;48110;47.532;19.078;2022-09-16T13:46:38;5.25;;;1.48;;
62123;SDS011;48110;47.532;19.078;2022-09-16T13:53:07;3.55;;;1.73;;
62123;SDS011;48110;47.532;19.078;2022-09-16T13:56:26;2.58;;;1.48;;
62123;SDS011;48110;47.532;19.078;2022-09-16T14:13:52;6.00;;;1.80;;
62123;SDS011;48110;47.532;19.078;2022-09-16T14:17:13;4.83;;;1.67;;
62123;SDS011;48110;47.532;19.078;2022-09-16T14:20:30;7.80;;;1.80;;
62123;SDS011;48110;47.532;19.078;2022-09-16T14:23:35;7.32;;;1.70;;
62123;SDS011;48110;47.532;19.078;2022-09-16T14:26:38;4.20;;;1.55;;
62123;SDS011;48110;47.532;19.078;2022-09-16T14:30:03;4.47;;;1.75;;
62123;SDS011;48110;47.532;19.078;2022-09-16T14:33:09;9.70;;;1.55;;
62123;SDS011;48110;47.532;19.078;2022-09-16T14:36:17;5.15;;;1.70;;
62123;SDS011;48110;47.532;19.078;2022-09-16T14:39:22;3.75;;;1.65;;
62123;SDS011;48110;47.532;19.078;2022-09-16T14:42:27;4.60;;;1.80;;
62123;SDS011;48110;47.532;19.078;2022-09-16T14:45:31;7.25;;;1.80;;
62123;SDS011;48110;47.532;19.078;2022-09-16T14:48:37;4.32;;;1.52;;
62123;SDS011;48110;47.532;19.078;2022-09-16T14:51:43;7.97;;;1.90;;
62123;SDS011;48110;47.532;19.078;2022-09-16T14:54:48;3.85;;;1.30;;
62123;SDS011;48110;47.532;19.078;2022-09-16T14:57:52;4.20;;;1.60;;
62123;SDS011;48110;47.532;19.078;2022-09-16T15:01:00;3.08;;;1.50;;
62123;SDS011;48110;47.532;19.078;2022-09-16T15:04:18;4.60;;;1.80;;
62123;SDS011;48110;47.532;19.078;2022-09-16T15:07:33;5.53;;;1.98;;
62123;SDS011;48110;47.532;19.078;2022-09-16T15:11:03;2.83;;;1.60;;
62123;SDS011;48110;47.532;19.078;2022-09-16T15:14:36;6.00;;;1.83;;
62123;SDS011;48110;47.532;19.078;2022-09-16T15:17:39;4.30;;;1.87;;
62123;SDS011;48110;47.532;19.078;2022-09-16T15:20:48;2.78;;;1.50;;
62123;SDS011;48110;47.532;19.078;2022-09-16T15:23:55;2.60;;;1.60;;
62123;SDS011;48110;47.532;19.078;2022-09-16T15:27:00;6.22;;;2.20;;
62123;SDS011;48110;47.532;19.078;2022-09-16T15:30:04;4.90;;;1.77;;
62123;SDS011;48110;47.532;19.078;2022-09-16T15:36:38;6.32;;;2.10;;
62123;SDS011;48110;47.532;19.078;2022-09-16T15:39:43;5.35;;;2.17;;
62123;SDS011;48110;47.532;19.078;2022-09-16T15:42:59;4.62;;;2.10;;
62123;SDS011;48110;47.532;19.078;2022-09-16T15:46:17;5.78;;;1.80;;
62123;SDS011;48110;47.532;19.078;2022-09-16T15:49:23;4.75;;;1.90;;
62123;SDS011;48110;47.532;19.078;2022-09-16T15:52:34;4.00;;;2.00;;
62123;SDS011;48110;47.532;19.078;2022-09-16T15:56:16;3.80;;;1.77;;
62123;SDS011;48110;47.532;19.078;2022-09-16T15:59:30;6.55;;;2.00;;
62123;SDS011;48110;47.532;19.078;2022-09-16T16:02:52;4.95;;;2.25;;
62123;SDS011;48110;47.532;19.078;2022-09-16T16:05:58;5.72;;;2.10;;
62123;SDS011;48110;47.532;19.078;2022-09-16T16:09:01;7.55;;;2.10;;
62123;SDS011;48110;47.532;19.078;2022-09-16T16:12:06;5.90;;;2.30;;
62123;SDS011;48110;47.532;19.078;2022-09-16T16:15:11;7.82;;;2.05;;
62123;SDS011;48110;47.532;19.078;2022-09-16T16:18:15;4.28;;;2.20;;
62123;SDS011;48110;47.532;19.078;2022-09-16T16:21:18;7.15;;;2.00;;
62123;SDS011;48110;47.532;19.078;2022-09-16T16:24:24;5.95;;;2.20;;
62123;SDS011;48110;47.532;19.078;2022-09-16T16:27:28;7.78;;;2.30;;
62123;SDS011;48110;47.532;19.078;2022-09-16T16:30:31;5.22;;;1.87;;
62123;SDS011;48110;47.532;19.078;2022-09-16T16:33:34;10.30;;;2.53;;
62123;SDS011;48110;47.532;19.078;2022-09-16T16:36:36;7.47;;;2.55;;
62123;SDS011;48110;47.532;19.078;2022-09-16T16:39:39;5.03;;;2.20;;
62123;SDS011;48110;47.532;19.078;2022-09-16T16:42:43;6.47;;;2.17;;
62123;SDS011;48110;47.532;19.078;2022-09-16T16:45:52;5.93;;;2.55;;
62123;SDS011;48110;47.532;19.078;2022-09-16T16:48:55;7.22;;;2.47;;
62123;SDS011;48110;47.532;19.078;2022-09-16T16:51:58;6.65;;;2.20;;
62123;SDS011;48110;47.532;19.078;2022-09-16T16:55:02;4.25;;;2.28;;
62123;SDS011;48110;47.532;19.078;2022-09-16T16:58:05;5.45;;;2.20;;
62123;SDS011;48110;47.532;19.078;2022-09-16T17:01:09;4.95;;;2.10;;
62123;SDS011;48110;47.532;19.078;2022-09-16T17:04:17;3.67;;;2.20;;
62123;SDS011;48110;47.532;19.078;2022-09-16T17:07:20;4.35;;;2.28;;
62123;SDS011;48110;47.532;19.078;2022-09-16T17:10:28;5.03;;;2.40;;
62123;SDS011;48110;47.532;19.078;2022-09-16T17:13:32;5.87;;;2.03;;
62123;SDS011;48110;47.532;19.078;2022-09-16T17:16:35;6.97;;;2.42;;
62123;SDS011;48110;47.532;19.078;2022-09-16T17:19:38;5.72;;;2.00;;
62123;SDS011;48110;47.532;19.078;2022-09-16T17:22:40;4.22;;;2.28;;
62123;SDS011;48110;47.532;19.078;2022-09-16T17:25:47;4.32;;;2.15;;
62123;SDS011;48110;47.532;19.078;2022-09-16T17:28:51;7.35;;;2.35;;
62123;SDS011;48110;47.532;19.078;2022-09-16T17:31:55;6.20;;;2.05;;
62123;SDS011;48110;47.532;19.078;2022-09-16T17:34:58;7.55;;;2.10;;
62123;SDS011;48110;47.532;19.078;2022-09-16T17:38:01;5.82;;;2.30;;
62123;SDS011;48110;47.532;19.078;2022-09-16T17:41:12;5.97;;;2.30;;
62123;SDS011;48110;47.532;19.078;2022-09-16T17:44:16;4.97;;;2.33;;
62123;SDS011;48110;47.532;19.078;2022-09-16T17:47:20;4.85;;;2.10;;
62123;SDS011;48110;47.532;19.078;2022-09-16T17:50:25;4.65;;;2.28;;
62123;SDS011;48110;47.532;19.078;2022-09-16T17:53:28;5.05;;;2.60;;
62123;SDS011;48110;47.532;19.078;2022-09-16T17:56:31;7.93;;;2.65;;
62123;SDS011;48110;47.532;19.078;2022-09-16T17:59:33;6.12;;;2.67;;
62123;SDS011;48110;47.532;19.078;2022-09-16T18:02:36;8.13;;;2.22;;
62123;SDS011;48110;47.532;19.078;2022-09-16T18:05:39;3.90;;;2.03;;
62123;SDS011;48110;47.532;19.078;2022-09-16T18:08:41;3.20;;;2.35;;
62123;SDS011;48110;47.532;19.078;2022-09-16T18:11:45;6.53;;;2.33;;
62123;SDS011;48110;47.532;19.078;2022-09-16T18:14:48;4.82;;;2.17;;
62123;SDS011;48110;47.532;19.078;2022-09-16T18:17:52;5.65;;;2.12;;
62123;SDS011;48110;47.532;19.078;2022-09-16T18:20:55;3.67;;;2.05;;
62123;SDS011;48110;47.532;19.078;2022-09-16T18:23:59;4.62;;;2.10;;
62123;SDS011;48110;47.532;19.078;2022-09-16T18:27:03;5.40;;;2.60;;
62123;SDS011;48110;47.532;19.078;2022-09-16T18:30:07;6.35;;;2.50;;
62123;SDS011;48110;47.532;19.078;2022-09-16T18:33:10;5.70;;;2.40;;
62123;SDS011;48110;47.532;19.078;2022-09-16T18:36:13;3.50;;;2.08;;
62123;SDS011;48110;47.532;19.078;2022-09-16T18:39:17;4.82;;;2.17;;
62123;SDS011;48110;47.532;19.078;2022-09-16T18:42:20;5.35;;;2.30;;
62123;SDS011;48110;47.532;19.078;2022-09-16T18:45:23;6.95;;;2.60;;
62123;SDS011;48110;47.532;19.078;2022-09-16T18:48:25;6.70;;;2.28;;
62123;SDS011;48110;47.532;19.078;2022-09-16T18:51:38;4.55;;;2.47;;
62123;SDS011;48110;47.532;19.078;2022-09-16T18:54:42;5.40;;;2.20;;
62123;SDS011;48110;47.532;19.078;2022-09-16T18:57:47;5.30;;;2.40;;
62123;SDS011;48110;47.532;19.078;2022-09-16T19:00:50;3.20;;;2.05;;
62123;SDS011;48110;47.532;19.078;2022-09-16T19:03:54;7.70;;;2.83;;
62123;SDS011;48110;47.532;19.078;2022-09-16T19:07:03;6.50;;;2.55;;
62123;SDS011;48110;47.532;19.078;2022-09-16T19:10:09;4.90;;;2.10;;
62123;SDS011;48110;47.532;19.078;2022-09-16T19:13:12;4.37;;;2.22;;
62123;SDS011;48110;47.532;19.078;2022-09-16T19:16:15;5.80;;;2.50;;
62123;SDS011;48110;47.532;19.078;2022-09-16T19:19:18;4.65;;;2.20;;
62123;SDS011;48110;47.532;19.078;2022-09-16T19:22:22;4.55;;;2.40;;
62123;SDS011;48110;47.532;19.078;2022-09-16T19:25:25;5.87;;;2.30;;
62123;SDS011;48110;47.532;19.078;2022-09-16T19:28:28;5.85;;;2.22;;
62123;SDS011;48110;47.532;19.078;2022-09-16T19:31:33;6.68;;;2.20;;
62123;SDS011;48110;47.532;19.078;2022-09-16T19:34:37;5.78;;;2.50;;
62123;SDS011;48110;47.532;19.078;2022-09-16T19:37:39;4.55;;;2.40;;
62123;SDS011;48110;47.532;19.078;2022-09-16T19:40:42;5.68;;;2.45;;
62123;SDS011;48110;47.532;19.078;2022-09-16T19:43:45;6.65;;;2.70;;
62123;SDS011;48110;47.532;19.078;2022-09-16T19:46:48;4.87;;;2.40;;
62123;SDS011;48110;47.532;19.078;2022-09-16T19:49:51;8.52;;;2.60;;
62123;SDS011;48110;47.532;19.078;2022-09-16T19:52:53;4.22;;;2.50;;
62123;SDS011;48110;47.532;19.078;2022-09-16T19:55:57;6.62;;;2.87;;
62123;SDS011;48110;47.532;19.078;2022-09-16T19:59:01;8.07;;;2.60;;
62123;SDS011;48110;47.532;19.078;2022-09-16T20:02:04;9.13;;;2.60;;
62123;SDS011;48110;47.532;19.078;2022-09-16T20:05:08;10.05;;;3.50;;
62123;SDS011;48110;47.532;19.078;2022-09-16T20:08:11;8.07;;;3.08;;
62123;SDS011;48110;47.532;19.078;2022-09-16T20:11:15;6.93;;;3.03;;
62123;SDS011;48110;47.532;19.078;2022-09-16T20:14:20;6.18;;;2.62;;
62123;SDS011;48110;47.532;19.078;2022-09-16T20:17:23;9.98;;;3.00;;
62123;SDS011;48110;47.532;19.078;2022-09-16T20:20:25;5.93;;;2.65;;
62123;SDS011;48110;47.532;19.078;2022-09-16T20:23:28;8.30;;;2.60;;
62123;SDS011;48110;47.532;19.078;2022-09-16T20:26:32;5.65;;;2.50;;
62123;SDS011;48110;47.532;19.078;2022-09-16T20:29:36;7.12;;;2.92;;
62123;SDS011;48110;47.532;19.078;2022-09-16T20:32:38;4.50;;;2.42;;
62123;SDS011;48110;47.532;19.078;2022-09-16T20:35:41;5.97;;;3.03;;
62123;SDS011;48110;47.532;19.078;2022-09-16T20:38:44;7.40;;;2.95;;
62123;SDS011;48110;47.532;19.078;2022-09-16T20:41:48;9.10;;;2.95;;
62123;SDS011;48110;47.532;19.078;2022-09-16T20:44:53;8.45;;;2.90;;
62123;SDS011;48110;47.532;19.078;2022-09-16T20:47:56;6.45;;;2.67;;
62123;SDS011;48110;47.532;19.078;2022-09-16T20:51:03;3.58;;;2.25;;
62123;SDS011;48110;47.532;19.078;2022-09-16T20:54:09;5.65;;;2.72;;
62123;SDS011;48110;47.532;19.078;2022-09-16T20:57:13;5.55;;;2.47;;
62123;SDS011;48110;47.532;19.078;2022-09-16T21:00:16;6.87;;;2.80;;
62123;SDS011;48110;47.532;19.078;2022-09-16T21:03:18;7.22;;;2.60;;
62123;SDS011;48110;47.532;19.078;2022-09-16T21:06:22;3.67;;;2.60;;
62123;SDS011;48110;47.532;19.078;2022-09-16T21:09:26;6.30;;;2.90;;
62123;SDS011;48110;47.532;19.078;2022-09-16T21:12:29;6.70;;;2.80;;
62123;SDS011;48110;47.532;19.078;2022-09-16T21:15:31;6.37;;;2.70;;